sensor_id;sensor_type;location;lat;lon;timestamp;P1;durP1;ratioP1;P2;durP2;ratioP2
85190;SDS011;75560;0.000;0.000;2024-01-11T00:00:05;8.45;;;4.18;;
85190;SDS011;75560;0.000;0.000;2024-01-11T00:02:31;7.10;;;4.30;;
85190;SDS011;75560;0.000;0.000;2024-01-11T00:04:57;6.95;;;4.20;;
85190;SDS011;75560;0.000;0.000;2024-01-11T00:07:22;6.65;;;4.20;;
85190;SDS011;75560;0.000;0.000;2024-01-11T00:09:48;6.50;;;4.10;;
85190;SDS011;75560;0.000;0.000;2024-01-11T00:12:13;6.55;;;3.92;;
85190;SDS011;75560;0.000;0.000;2024-01-11T00:14:39;9.00;;;4.18;;
85190;SDS011;75560;0.000;0.000;2024-01-11T00:17:05;8.20;;;4.47;;
85190;SDS011;75560;0.000;0.000;2024-01-11T00:19:30;7.40;;;4.05;;
85190;SDS011;75560;0.000;0.000;2024-01-11T00:21:55;6.68;;;3.97;;
85190;SDS011;75560;0.000;0.000;2024-01-11T00:24:21;5.80;;;4.03;;
85190;SDS011;75560;0.000;0.000;2024-01-11T00:26:46;6.18;;;4.15;;
85190;SDS011;75560;0.000;0.000;2024-01-11T00:29:11;6.50;;;4.05;;
85190;SDS011;75560;0.000;0.000;2024-01-11T00:31:37;7.05;;;4.25;;
85190;SDS011;75560;0.000;0.000;2024-01-11T00:34:03;7.22;;;3.85;;
85190;SDS011;75560;0.000;0.000;2024-01-11T00:36:29;7.00;;;4.05;;
85190;SDS011;75560;0.000;0.000;2024-01-11T00:38:54;7.60;;;4.65;;
85190;SDS011;75560;0.000;0.000;2024-01-11T00:41:20;6.82;;;4.10;;
85190;SDS011;75560;0.000;0.000;2024-01-11T00:43:45;6.53;;;4.00;;
85190;SDS011;75560;0.000;0.000;2024-01-11T00:46:11;5.85;;;3.80;;
85190;SDS011;75560;0.000;0.000;2024-01-11T00:48:36;6.45;;;3.95;;
85190;SDS011;75560;0.000;0.000;2024-01-11T00:51:03;5.63;;;3.75;;
85190;SDS011;75560;0.000;0.000;2024-01-11T00:53:30;6.72;;;4.00;;
85190;SDS011;75560;0.000;0.000;2024-01-11T00:55:56;7.30;;;4.40;;
85190;SDS011;75560;0.000;0.000;2024-01-11T00:58:22;5.97;;;4.07;;
85190;SDS011;75560;0.000;0.000;2024-01-11T01:00:47;7.55;;;4.15;;
85190;SDS011;75560;0.000;0.000;2024-01-11T01:03:14;5.85;;;3.63;;
85190;SDS011;75560;0.000;0.000;2024-01-11T01:05:40;6.72;;;3.80;;
85190;SDS011;75560;0.000;0.000;2024-01-11T01:08:06;5.25;;;3.58;;
85190;SDS011;75560;0.000;0.000;2024-01-11T01:10:31;6.07;;;4.05;;
85190;SDS011;75560;0.000;0.000;2024-01-11T01:12:56;6.13;;;4.03;;
85190;SDS011;75560;0.000;0.000;2024-01-11T01:15:22;6.07;;;3.92;;
85190;SDS011;75560;0.000;0.000;2024-01-11T01:17:47;6.30;;;3.90;;
85190;SDS011;75560;0.000;0.000;2024-01-11T01:20:12;6.20;;;3.60;;
85190;SDS011;75560;0.000;0.000;2024-01-11T01:22:38;5.55;;;3.78;;
85190;SDS011;75560;0.000;0.000;2024-01-11T01:25:03;6.93;;;3.97;;
85190;SDS011;75560;0.000;0.000;2024-01-11T01:27:29;5.60;;;3.78;;
85190;SDS011;75560;0.000;0.000;2024-01-11T01:29:54;5.70;;;3.85;;
85190;SDS011;75560;0.000;0.000;2024-01-11T01:32:20;7.03;;;3.95;;
85190;SDS011;75560;0.000;0.000;2024-01-11T01:34:45;6.85;;;4.20;;
85190;SDS011;75560;0.000;0.000;2024-01-11T01:37:11;6.65;;;4.22;;
85190;SDS011;75560;0.000;0.000;2024-01-11T01:39:39;6.25;;;4.10;;
85190;SDS011;75560;0.000;0.000;2024-01-11T01:42:05;6.80;;;3.90;;
85190;SDS011;75560;0.000;0.000;2024-01-11T01:44:31;5.93;;;4.00;;
85190;SDS011;75560;0.000;0.000;2024-01-11T01:46:57;6.00;;;4.05;;
85190;SDS011;75560;0.000;0.000;2024-01-11T01:49:23;6.55;;;3.60;;
85190;SDS011;75560;0.000;0.000;2024-01-11T01:51:49;5.40;;;3.65;;
85190;SDS011;75560;0.000;0.000;2024-01-11T01:54:15;6.93;;;3.72;;
85190;SDS011;75560;0.000;0.000;2024-01-11T01:56:42;5.85;;;3.90;;
85190;SDS011;75560;0.000;0.000;2024-01-11T01:59:07;6.60;;;4.20;;
85190;SDS011;75560;0.000;0.000;2024-01-11T02:01:35;6.40;;;4.00;;
85190;SDS011;75560;0.000;0.000;2024-01-11T02:04:01;6.45;;;4.10;;
85190;SDS011;75560;0.000;0.000;2024-01-11T02:06:26;5.95;;;3.95;;
85190;SDS011;75560;0.000;0.000;2024-01-11T02:08:57;5.53;;;3.75;;
85190;SDS011;75560;0.000;0.000;2024-01-11T02:11:24;6.03;;;3.90;;
85190;SDS011;75560;0.000;0.000;2024-01-11T02:13:49;5.60;;;3.53;;
85190;SDS011;75560;0.000;0.000;2024-01-11T02:16:15;6.53;;;3.83;;
85190;SDS011;75560;0.000;0.000;2024-01-11T02:18:41;4.80;;;3.60;;
85190;SDS011;75560;0.000;0.000;2024-01-11T02:21:07;6.55;;;4.15;;
85190;SDS011;75560;0.000;0.000;2024-01-11T02:23:35;6.22;;;3.83;;
85190;SDS011;75560;0.000;0.000;2024-01-11T02:26:06;6.90;;;3.95;;
85190;SDS011;75560;0.000;0.000;2024-01-11T02:28:32;7.15;;;3.80;;
85190;SDS011;75560;0.000;0.000;2024-01-11T02:30:57;5.97;;;3.70;;
85190;SDS011;75560;0.000;0.000;2024-01-11T02:33:23;8.52;;;3.92;;
85190;SDS011;75560;0.000;0.000;2024-01-11T02:35:48;5.63;;;3.90;;
85190;SDS011;75560;0.000;0.000;2024-01-11T02:38:14;6.43;;;4.13;;
85190;SDS011;75560;0.000;0.000;2024-01-11T02:40:40;6.75;;;3.95;;
85190;SDS011;75560;0.000;0.000;2024-01-11T02:43:07;6.85;;;4.10;;
85190;SDS011;75560;0.000;0.000;2024-01-11T02:45:33;5.78;;;3.70;;
85190;SDS011;75560;0.000;0.000;2024-01-11T02:47:59;6.68;;;4.10;;
85190;SDS011;75560;0.000;0.000;2024-01-11T02:50:24;6.50;;;4.35;;
85190;SDS011;75560;0.000;0.000;2024-01-11T02:52:49;6.85;;;4.15;;
85190;SDS011;75560;0.000;0.000;2024-01-11T02:55:15;5.75;;;3.65;;
85190;SDS011;75560;0.000;0.000;2024-01-11T02:57:40;6.00;;;3.80;;
85190;SDS011;75560;0.000;0.000;2024-01-11T03:00:05;5.97;;;3.92;;
85190;SDS011;75560;0.000;0.000;2024-01-11T03:02:31;6.85;;;3.95;;
85190;SDS011;75560;0.000;0.000;2024-01-11T03:04:56;7.50;;;4.18;;
85190;SDS011;75560;0.000;0.000;2024-01-11T03:07:22;6.47;;;4.07;;
85190;SDS011;75560;0.000;0.000;2024-01-11T03:09:47;5.95;;;3.88;;
85190;SDS011;75560;0.000;0.000;2024-01-11T03:12:12;5.97;;;3.80;;
85190;SDS011;75560;0.000;0.000;2024-01-11T03:14:38;6.47;;;4.30;;
85190;SDS011;75560;0.000;0.000;2024-01-11T03:17:03;6.43;;;4.13;;
85190;SDS011;75560;0.000;0.000;2024-01-11T03:19:29;6.57;;;3.88;;
85190;SDS011;75560;0.000;0.000;2024-01-11T03:21:55;6.78;;;4.10;;
85190;SDS011;75560;0.000;0.000;2024-01-11T03:24:20;6.03;;;4.03;;
85190;SDS011;75560;0.000;0.000;2024-01-11T03:26:45;5.63;;;3.67;;
85190;SDS011;75560;0.000;0.000;2024-01-11T03:29:12;5.65;;;3.90;;
85190;SDS011;75560;0.000;0.000;2024-01-11T03:31:38;5.82;;;4.00;;
85190;SDS011;75560;0.000;0.000;2024-01-11T03:34:06;6.47;;;4.15;;
85190;SDS011;75560;0.000;0.000;2024-01-11T03:36:32;6.22;;;4.15;;
85190;SDS011;75560;0.000;0.000;2024-01-11T03:38:57;6.72;;;4.22;;
85190;SDS011;75560;0.000;0.000;2024-01-11T03:41:23;5.78;;;3.70;;
85190;SDS011;75560;0.000;0.000;2024-01-11T03:43:49;6.22;;;4.00;;
85190;SDS011;75560;0.000;0.000;2024-01-11T03:46:15;5.60;;;3.97;;
85190;SDS011;75560;0.000;0.000;2024-01-11T03:48:40;5.75;;;3.95;;
85190;SDS011;75560;0.000;0.000;2024-01-11T03:51:06;7.22;;;4.05;;
85190;SDS011;75560;0.000;0.000;2024-01-11T03:53:34;5.75;;;3.92;;
85190;SDS011;75560;0.000;0.000;2024-01-11T03:56:01;6.90;;;4.00;;
85190;SDS011;75560;0.000;0.000;2024-01-11T03:58:27;6.50;;;3.88;;
85190;SDS011;75560;0.000;0.000;2024-01-11T04:00:52;4.95;;;3.55;;
85190;SDS011;75560;0.000;0.000;2024-01-11T04:03:17;6.60;;;4.00;;
85190;SDS011;75560;0.000;0.000;2024-01-11T04:05:42;4.93;;;3.55;;
85190;SDS011;75560;0.000;0.000;2024-01-11T04:08:08;6.35;;;3.95;;
85190;SDS011;75560;0.000;0.000;2024-01-11T04:10:33;5.78;;;3.83;;
85190;SDS011;75560;0.000;0.000;2024-01-11T04:12:59;6.60;;;3.83;;
85190;SDS011;75560;0.000;0.000;2024-01-11T04:15:24;5.63;;;3.58;;
85190;SDS011;75560;0.000;0.000;2024-01-11T04:17:50;6.45;;;4.20;;
85190;SDS011;75560;0.000;0.000;2024-01-11T04:20:15;6.80;;;4.22;;
85190;SDS011;75560;0.000;0.000;2024-01-11T04:22:40;6.15;;;4.20;;
85190;SDS011;75560;0.000;0.000;2024-01-11T04:25:06;6.80;;;3.85;;
85190;SDS011;75560;0.000;0.000;2024-01-11T04:27:32;6.45;;;4.05;;
85190;SDS011;75560;0.000;0.000;2024-01-11T04:29:57;5.00;;;3.80;;
85190;SDS011;75560;0.000;0.000;2024-01-11T04:32:22;5.88;;;3.90;;
85190;SDS011;75560;0.000;0.000;2024-01-11T04:34:48;5.75;;;3.97;;
85190;SDS011;75560;0.000;0.000;2024-01-11T04:37:13;6.50;;;3.97;;
85190;SDS011;75560;0.000;0.000;2024-01-11T04:39:38;5.90;;;4.10;;
85190;SDS011;75560;0.000;0.000;2024-01-11T04:42:04;6.32;;;4.18;;
85190;SDS011;75560;0.000;0.000;2024-01-11T04:44:29;6.55;;;4.35;;
85190;SDS011;75560;0.000;0.000;2024-01-11T04:46:55;5.38;;;3.90;;
85190;SDS011;75560;0.000;0.000;2024-01-11T04:49:20;6.88;;;4.25;;
85190;SDS011;75560;0.000;0.000;2024-01-11T04:51:45;5.18;;;3.60;;
85190;SDS011;75560;0.000;0.000;2024-01-11T04:54:10;7.60;;;4.20;;
85190;SDS011;75560;0.000;0.000;2024-01-11T04:56:36;6.35;;;4.25;;
85190;SDS011;75560;0.000;0.000;2024-01-11T04:59:01;5.78;;;3.80;;
85190;SDS011;75560;0.000;0.000;2024-01-11T05:01:26;5.68;;;3.97;;
85190;SDS011;75560;0.000;0.000;2024-01-11T05:03:52;6.18;;;3.92;;
85190;SDS011;75560;0.000;0.000;2024-01-11T05:06:18;5.43;;;3.53;;
85190;SDS011;75560;0.000;0.000;2024-01-11T05:08:45;6.80;;;4.55;;
85190;SDS011;75560;0.000;0.000;2024-01-11T05:11:18;6.63;;;4.32;;
85190;SDS011;75560;0.000;0.000;2024-01-11T05:13:47;7.50;;;4.45;;
85190;SDS011;75560;0.000;0.000;2024-01-11T05:16:20;8.35;;;4.40;;
85190;SDS011;75560;0.000;0.000;2024-01-11T05:18:47;6.40;;;4.10;;
85190;SDS011;75560;0.000;0.000;2024-01-11T05:21:13;6.80;;;4.20;;
85190;SDS011;75560;0.000;0.000;2024-01-11T05:23:39;7.13;;;3.72;;
85190;SDS011;75560;0.000;0.000;2024-01-11T05:26:06;6.13;;;4.20;;
85190;SDS011;75560;0.000;0.000;2024-01-11T05:28:32;7.75;;;4.28;;
85190;SDS011;75560;0.000;0.000;2024-01-11T05:30:57;7.90;;;4.88;;
85190;SDS011;75560;0.000;0.000;2024-01-11T05:33:23;6.90;;;4.20;;
85190;SDS011;75560;0.000;0.000;2024-01-11T05:35:48;6.25;;;4.60;;
85190;SDS011;75560;0.000;0.000;2024-01-11T05:38:13;6.05;;;4.32;;
85190;SDS011;75560;0.000;0.000;2024-01-11T05:40:38;8.10;;;4.82;;
85190;SDS011;75560;0.000;0.000;2024-01-11T05:43:04;8.55;;;4.88;;
85190;SDS011;75560;0.000;0.000;2024-01-11T05:45:29;6.40;;;4.30;;
85190;SDS011;75560;0.000;0.000;2024-01-11T05:47:54;8.45;;;4.30;;
85190;SDS011;75560;0.000;0.000;2024-01-11T05:50:20;5.70;;;3.97;;
85190;SDS011;75560;0.000;0.000;2024-01-11T05:52:45;6.80;;;4.18;;
85190;SDS011;75560;0.000;0.000;2024-01-11T05:55:10;7.45;;;4.45;;
85190;SDS011;75560;0.000;0.000;2024-01-11T05:57:36;7.43;;;4.78;;
85190;SDS011;75560;0.000;0.000;2024-01-11T06:00:01;7.45;;;4.47;;
85190;SDS011;75560;0.000;0.000;2024-01-11T06:02:27;7.97;;;4.40;;
85190;SDS011;75560;0.000;0.000;2024-01-11T06:04:52;7.10;;;4.80;;
85190;SDS011;75560;0.000;0.000;2024-01-11T06:07:18;8.38;;;4.97;;
85190;SDS011;75560;0.000;0.000;2024-01-11T06:09:43;8.85;;;5.35;;
85190;SDS011;75560;0.000;0.000;2024-01-11T06:12:08;9.45;;;4.90;;
85190;SDS011;75560;0.000;0.000;2024-01-11T06:14:34;11.38;;;4.97;;
85190;SDS011;75560;0.000;0.000;2024-01-11T06:16:59;8.85;;;4.85;;
85190;SDS011;75560;0.000;0.000;2024-01-11T06:19:24;10.43;;;5.00;;
85190;SDS011;75560;0.000;0.000;2024-01-11T06:21:50;9.80;;;5.00;;
85190;SDS011;75560;0.000;0.000;2024-01-11T06:24:15;10.75;;;4.75;;
85190;SDS011;75560;0.000;0.000;2024-01-11T06:26:40;8.20;;;4.93;;
85190;SDS011;75560;0.000;0.000;2024-01-11T06:29:05;11.18;;;5.07;;
85190;SDS011;75560;0.000;0.000;2024-01-11T06:31:31;7.65;;;4.80;;
85190;SDS011;75560;0.000;0.000;2024-01-11T06:33:56;10.93;;;5.22;;
85190;SDS011;75560;0.000;0.000;2024-01-11T06:36:22;13.57;;;5.63;;
85190;SDS011;75560;0.000;0.000;2024-01-11T06:38:47;12.35;;;5.95;;
85190;SDS011;75560;0.000;0.000;2024-01-11T06:41:13;14.60;;;6.68;;
85190;SDS011;75560;0.000;0.000;2024-01-11T06:43:39;17.15;;;8.57;;
85190;SDS011;75560;0.000;0.000;2024-01-11T06:46:04;16.65;;;8.95;;
85190;SDS011;75560;0.000;0.000;2024-01-11T06:48:30;15.55;;;10.55;;
85190;SDS011;75560;0.000;0.000;2024-01-11T06:50:56;18.98;;;10.98;;
85190;SDS011;75560;0.000;0.000;2024-01-11T06:53:22;15.15;;;10.13;;
85190;SDS011;75560;0.000;0.000;2024-01-11T06:55:47;17.10;;;10.65;;
85190;SDS011;75560;0.000;0.000;2024-01-11T06:58:13;15.50;;;9.40;;
85190;SDS011;75560;0.000;0.000;2024-01-11T07:00:38;19.38;;;10.20;;
85190;SDS011;75560;0.000;0.000;2024-01-11T07:03:11;15.73;;;9.25;;
85190;SDS011;75560;0.000;0.000;2024-01-11T07:05:36;13.80;;;8.85;;
85190;SDS011;75560;0.000;0.000;2024-01-11T07:08:02;12.70;;;8.85;;
85190;SDS011;75560;0.000;0.000;2024-01-11T07:10:27;12.63;;;8.90;;
85190;SDS011;75560;0.000;0.000;2024-01-11T07:12:53;13.93;;;8.52;;
85190;SDS011;75560;0.000;0.000;2024-01-11T07:15:18;13.77;;;8.63;;
85190;SDS011;75560;0.000;0.000;2024-01-11T07:17:43;12.52;;;7.82;;
85190;SDS011;75560;0.000;0.000;2024-01-11T07:20:09;13.43;;;8.00;;
85190;SDS011;75560;0.000;0.000;2024-01-11T07:22:35;12.65;;;8.50;;
85190;SDS011;75560;0.000;0.000;2024-01-11T07:25:00;13.65;;;8.43;;
85190;SDS011;75560;0.000;0.000;2024-01-11T07:27:26;10.40;;;7.68;;
85190;SDS011;75560;0.000;0.000;2024-01-11T07:29:51;11.30;;;8.07;;
85190;SDS011;75560;0.000;0.000;2024-01-11T07:32:16;13.07;;;7.70;;
85190;SDS011;75560;0.000;0.000;2024-01-11T07:34:42;12.40;;;8.15;;
85190;SDS011;75560;0.000;0.000;2024-01-11T07:37:07;12.85;;;7.75;;
85190;SDS011;75560;0.000;0.000;2024-01-11T07:39:33;11.90;;;7.50;;
85190;SDS011;75560;0.000;0.000;2024-01-11T07:41:59;10.32;;;6.97;;
85190;SDS011;75560;0.000;0.000;2024-01-11T07:44:24;11.23;;;7.10;;
85190;SDS011;75560;0.000;0.000;2024-01-11T07:46:50;11.95;;;7.60;;
85190;SDS011;75560;0.000;0.000;2024-01-11T07:49:15;10.25;;;7.10;;
85190;SDS011;75560;0.000;0.000;2024-01-11T07:51:40;10.45;;;7.20;;
85190;SDS011;75560;0.000;0.000;2024-01-11T07:54:05;10.73;;;7.43;;
85190;SDS011;75560;0.000;0.000;2024-01-11T07:56:31;11.23;;;7.40;;
85190;SDS011;75560;0.000;0.000;2024-01-11T07:58:56;9.35;;;6.50;;
85190;SDS011;75560;0.000;0.000;2024-01-11T08:01:22;10.40;;;7.13;;
85190;SDS011;75560;0.000;0.000;2024-01-11T08:03:47;9.57;;;6.75;;
85190;SDS011;75560;0.000;0.000;2024-01-11T08:06:12;8.65;;;6.30;;
85190;SDS011;75560;0.000;0.000;2024-01-11T08:08:38;9.50;;;6.90;;
85190;SDS011;75560;0.000;0.000;2024-01-11T08:11:06;10.48;;;6.68;;
85190;SDS011;75560;0.000;0.000;2024-01-11T08:13:32;10.50;;;6.68;;
85190;SDS011;75560;0.000;0.000;2024-01-11T08:15:58;8.82;;;6.22;;
85190;SDS011;75560;0.000;0.000;2024-01-11T08:18:27;9.20;;;6.40;;
85190;SDS011;75560;0.000;0.000;2024-01-11T08:20:52;10.50;;;6.80;;
85190;SDS011;75560;0.000;0.000;2024-01-11T08:23:17;9.48;;;6.70;;
85190;SDS011;75560;0.000;0.000;2024-01-11T08:25:43;9.70;;;6.57;;
85190;SDS011;75560;0.000;0.000;2024-01-11T08:28:08;9.43;;;6.63;;
85190;SDS011;75560;0.000;0.000;2024-01-11T08:30:33;9.70;;;6.28;;
85190;SDS011;75560;0.000;0.000;2024-01-11T08:32:58;10.57;;;6.55;;
85190;SDS011;75560;0.000;0.000;2024-01-11T08:35:24;10.00;;;6.40;;
85190;SDS011;75560;0.000;0.000;2024-01-11T08:37:49;9.02;;;5.88;;
85190;SDS011;75560;0.000;0.000;2024-01-11T08:40:15;8.85;;;6.15;;
85190;SDS011;75560;0.000;0.000;2024-01-11T08:42:40;8.77;;;5.93;;
85190;SDS011;75560;0.000;0.000;2024-01-11T08:45:07;9.90;;;6.07;;
85190;SDS011;75560;0.000;0.000;2024-01-11T08:47:33;8.60;;;5.90;;
85190;SDS011;75560;0.000;0.000;2024-01-11T08:49:59;8.57;;;6.38;;
85190;SDS011;75560;0.000;0.000;2024-01-11T08:52:24;11.18;;;6.72;;
85190;SDS011;75560;0.000;0.000;2024-01-11T08:54:50;8.95;;;5.88;;
85190;SDS011;75560;0.000;0.000;2024-01-11T08:57:15;8.00;;;6.00;;
85190;SDS011;75560;0.000;0.000;2024-01-11T08:59:42;8.60;;;6.20;;
85190;SDS011;75560;0.000;0.000;2024-01-11T09:02:07;8.73;;;6.05;;
85190;SDS011;75560;0.000;0.000;2024-01-11T09:04:32;8.57;;;6.07;;
85190;SDS011;75560;0.000;0.000;2024-01-11T09:06:58;10.80;;;6.50;;
85190;SDS011;75560;0.000;0.000;2024-01-11T09:09:24;9.80;;;6.03;;
85190;SDS011;75560;0.000;0.000;2024-01-11T09:11:50;8.00;;;5.82;;
85190;SDS011;75560;0.000;0.000;2024-01-11T09:14:15;9.52;;;6.70;;
85190;SDS011;75560;0.000;0.000;2024-01-11T09:16:41;8.48;;;5.88;;
85190;SDS011;75560;0.000;0.000;2024-01-11T09:19:06;8.20;;;5.90;;
85190;SDS011;75560;0.000;0.000;2024-01-11T09:21:31;9.15;;;6.03;;
85190;SDS011;75560;0.000;0.000;2024-01-11T09:23:57;8.73;;;6.63;;
85190;SDS011;75560;0.000;0.000;2024-01-11T09:26:22;8.38;;;6.15;;
85190;SDS011;75560;0.000;0.000;2024-01-11T09:28:48;9.68;;;5.63;;
85190;SDS011;75560;0.000;0.000;2024-01-11T09:31:13;8.35;;;5.68;;
85190;SDS011;75560;0.000;0.000;2024-01-11T09:33:39;7.88;;;5.70;;
85190;SDS011;75560;0.000;0.000;2024-01-11T09:36:05;8.50;;;6.03;;
85190;SDS011;75560;0.000;0.000;2024-01-11T09:38:31;11.98;;;8.77;;
85190;SDS011;75560;0.000;0.000;2024-01-11T09:43:27;13.73;;;9.35;;
85190;SDS011;75560;0.000;0.000;2024-01-11T09:45:53;13.85;;;9.30;;
85190;SDS011;75560;0.000;0.000;2024-01-11T09:48:20;14.25;;;9.02;;
85190;SDS011;75560;0.000;0.000;2024-01-11T09:50:46;13.18;;;9.10;;
85190;SDS011;75560;0.000;0.000;2024-01-11T09:53:13;12.65;;;8.95;;
85190;SDS011;75560;0.000;0.000;2024-01-11T09:55:41;12.60;;;8.43;;
85190;SDS011;75560;0.000;0.000;2024-01-11T09:58:07;12.32;;;8.32;;
85190;SDS011;75560;0.000;0.000;2024-01-11T10:00:34;11.85;;;8.23;;
85190;SDS011;75560;0.000;0.000;2024-01-11T10:02:59;12.85;;;8.20;;
85190;SDS011;75560;0.000;0.000;2024-01-11T10:05:25;12.68;;;8.43;;
85190;SDS011;75560;0.000;0.000;2024-01-11T10:07:52;12.02;;;7.97;;
85190;SDS011;75560;0.000;0.000;2024-01-11T10:10:17;12.48;;;7.88;;
85190;SDS011;75560;0.000;0.000;2024-01-11T10:12:42;11.63;;;7.75;;
85190;SDS011;75560;0.000;0.000;2024-01-11T10:15:08;11.90;;;8.10;;
85190;SDS011;75560;0.000;0.000;2024-01-11T10:17:42;10.45;;;7.78;;
85190;SDS011;75560;0.000;0.000;2024-01-11T10:20:09;10.50;;;7.03;;
85190;SDS011;75560;0.000;0.000;2024-01-11T10:22:41;11.50;;;8.07;;
85190;SDS011;75560;0.000;0.000;2024-01-11T10:25:11;9.88;;;7.30;;
85190;SDS011;75560;0.000;0.000;2024-01-11T10:27:38;10.85;;;7.15;;
85190;SDS011;75560;0.000;0.000;2024-01-11T10:30:05;11.75;;;7.70;;
85190;SDS011;75560;0.000;0.000;2024-01-11T10:32:32;11.98;;;7.30;;
85190;SDS011;75560;0.000;0.000;2024-01-11T10:34:59;10.65;;;7.10;;
85190;SDS011;75560;0.000;0.000;2024-01-11T10:37:27;10.65;;;6.97;;
85190;SDS011;75560;0.000;0.000;2024-01-11T10:39:53;10.40;;;7.30;;
85190;SDS011;75560;0.000;0.000;2024-01-11T10:42:23;12.00;;;7.38;;
85190;SDS011;75560;0.000;0.000;2024-01-11T10:44:52;10.80;;;7.22;;
85190;SDS011;75560;0.000;0.000;2024-01-11T10:47:21;12.82;;;7.10;;
85190;SDS011;75560;0.000;0.000;2024-01-11T10:49:48;10.27;;;7.47;;
85190;SDS011;75560;0.000;0.000;2024-01-11T10:52:15;10.63;;;7.10;;
85190;SDS011;75560;0.000;0.000;2024-01-11T10:54:44;10.20;;;6.88;;
85190;SDS011;75560;0.000;0.000;2024-01-11T10:57:10;10.57;;;7.05;;
85190;SDS011;75560;0.000;0.000;2024-01-11T10:59:37;11.45;;;7.35;;
85190;SDS011;75560;0.000;0.000;2024-01-11T11:02:05;10.13;;;7.20;;
85190;SDS011;75560;0.000;0.000;2024-01-11T11:04:33;12.02;;;7.20;;
85190;SDS011;75560;0.000;0.000;2024-01-11T11:07:00;9.48;;;7.15;;
85190;SDS011;75560;0.000;0.000;2024-01-11T11:09:27;10.65;;;7.35;;
85190;SDS011;75560;0.000;0.000;2024-01-11T11:11:56;10.45;;;6.80;;
85190;SDS011;75560;0.000;0.000;2024-01-11T11:14:23;8.80;;;6.75;;
85190;SDS011;75560;0.000;0.000;2024-01-11T11:16:49;10.27;;;6.97;;
85190;SDS011;75560;0.000;0.000;2024-01-11T11:19:17;10.68;;;7.30;;
85190;SDS011;75560;0.000;0.000;2024-01-11T11:21:44;10.00;;;6.53;;
85190;SDS011;75560;0.000;0.000;2024-01-11T11:24:13;9.60;;;7.00;;
85190;SDS011;75560;0.000;0.000;2024-01-11T11:26:39;9.27;;;6.32;;
85190;SDS011;75560;0.000;0.000;2024-01-11T11:29:04;9.88;;;6.78;;
85190;SDS011;75560;0.000;0.000;2024-01-11T11:31:34;10.75;;;7.72;;
85190;SDS011;75560;0.000;0.000;2024-01-11T11:34:04;9.82;;;6.80;;
85190;SDS011;75560;0.000;0.000;2024-01-11T11:36:29;11.05;;;7.72;;
85190;SDS011;75560;0.000;0.000;2024-01-11T11:38:56;11.80;;;8.07;;
85190;SDS011;75560;0.000;0.000;2024-01-11T11:41:25;13.00;;;7.55;;
85190;SDS011;75560;0.000;0.000;2024-01-11T11:43:51;10.73;;;7.43;;
85190;SDS011;75560;0.000;0.000;2024-01-11T11:46:17;11.02;;;7.03;;
85190;SDS011;75560;0.000;0.000;2024-01-11T11:48:48;9.82;;;7.47;;
85190;SDS011;75560;0.000;0.000;2024-01-11T11:51:19;9.77;;;6.68;;
85190;SDS011;75560;0.000;0.000;2024-01-11T11:53:46;12.65;;;7.47;;
85190;SDS011;75560;0.000;0.000;2024-01-11T11:56:13;9.48;;;6.40;;
85190;SDS011;75560;0.000;0.000;2024-01-11T11:58:41;9.65;;;6.88;;
85190;SDS011;75560;0.000;0.000;2024-01-11T12:01:10;9.75;;;6.70;;
85190;SDS011;75560;0.000;0.000;2024-01-11T12:03:37;11.30;;;7.63;;
85190;SDS011;75560;0.000;0.000;2024-01-11T12:06:09;9.68;;;6.80;;
85190;SDS011;75560;0.000;0.000;2024-01-11T12:08:35;9.25;;;6.72;;
85190;SDS011;75560;0.000;0.000;2024-01-11T12:11:02;8.30;;;6.10;;
85190;SDS011;75560;0.000;0.000;2024-01-11T12:13:28;8.73;;;6.40;;
85190;SDS011;75560;0.000;0.000;2024-01-11T12:15:54;10.60;;;7.00;;
85190;SDS011;75560;0.000;0.000;2024-01-11T12:18:20;9.40;;;6.85;;
85190;SDS011;75560;0.000;0.000;2024-01-11T12:20:45;9.93;;;6.80;;
85190;SDS011;75560;0.000;0.000;2024-01-11T12:23:11;10.70;;;6.90;;
85190;SDS011;75560;0.000;0.000;2024-01-11T12:25:38;11.27;;;7.07;;
85190;SDS011;75560;0.000;0.000;2024-01-11T12:28:05;11.05;;;7.05;;
85190;SDS011;75560;0.000;0.000;2024-01-11T12:30:32;10.70;;;6.60;;
85190;SDS011;75560;0.000;0.000;2024-01-11T12:32:57;10.20;;;7.03;;
85190;SDS011;75560;0.000;0.000;2024-01-11T12:35:26;10.57;;;6.68;;
85190;SDS011;75560;0.000;0.000;2024-01-11T12:37:58;9.10;;;6.65;;
85190;SDS011;75560;0.000;0.000;2024-01-11T12:40:24;9.25;;;6.18;;
85190;SDS011;75560;0.000;0.000;2024-01-11T12:42:52;8.50;;;6.18;;
85190;SDS011;75560;0.000;0.000;2024-01-11T12:45:17;8.55;;;6.30;;
85190;SDS011;75560;0.000;0.000;2024-01-11T12:47:43;10.70;;;7.10;;
85190;SDS011;75560;0.000;0.000;2024-01-11T12:50:09;9.25;;;6.50;;
85190;SDS011;75560;0.000;0.000;2024-01-11T12:52:35;9.35;;;6.20;;
85190;SDS011;75560;0.000;0.000;2024-01-11T12:55:00;11.20;;;6.85;;
85190;SDS011;75560;0.000;0.000;2024-01-11T12:57:25;8.15;;;6.18;;
85190;SDS011;75560;0.000;0.000;2024-01-11T12:59:51;9.05;;;6.00;;
85190;SDS011;75560;0.000;0.000;2024-01-11T13:02:17;7.95;;;6.18;;
85190;SDS011;75560;0.000;0.000;2024-01-11T13:04:43;9.75;;;6.03;;
85190;SDS011;75560;0.000;0.000;2024-01-11T13:07:11;8.93;;;6.07;;
85190;SDS011;75560;0.000;0.000;2024-01-11T13:09:38;9.68;;;6.13;;
85190;SDS011;75560;0.000;0.000;2024-01-11T13:12:04;9.70;;;6.22;;
85190;SDS011;75560;0.000;0.000;2024-01-11T13:14:30;9.43;;;6.35;;
85190;SDS011;75560;0.000;0.000;2024-01-11T13:16:56;8.90;;;6.32;;
85190;SDS011;75560;0.000;0.000;2024-01-11T13:19:21;12.68;;;7.75;;
85190;SDS011;75560;0.000;0.000;2024-01-11T13:21:47;14.02;;;9.18;;
85190;SDS011;75560;0.000;0.000;2024-01-11T13:24:12;13.70;;;9.30;;
85190;SDS011;75560;0.000;0.000;2024-01-11T13:26:38;13.68;;;8.90;;
85190;SDS011;75560;0.000;0.000;2024-01-11T13:29:03;12.85;;;8.27;;
85190;SDS011;75560;0.000;0.000;2024-01-11T13:31:32;15.13;;;9.13;;
85190;SDS011;75560;0.000;0.000;2024-01-11T13:33:58;11.57;;;8.18;;
85190;SDS011;75560;0.000;0.000;2024-01-11T13:36:23;12.57;;;8.50;;
85190;SDS011;75560;0.000;0.000;2024-01-11T13:38:49;13.05;;;8.25;;
85190;SDS011;75560;0.000;0.000;2024-01-11T13:41:16;12.80;;;8.73;;
85190;SDS011;75560;0.000;0.000;2024-01-11T13:43:42;11.50;;;7.93;;
85190;SDS011;75560;0.000;0.000;2024-01-11T13:46:08;12.38;;;8.23;;
85190;SDS011;75560;0.000;0.000;2024-01-11T13:48:34;13.18;;;7.72;;
85190;SDS011;75560;0.000;0.000;2024-01-11T13:50:59;10.88;;;7.45;;
85190;SDS011;75560;0.000;0.000;2024-01-11T13:53:25;10.90;;;7.40;;
85190;SDS011;75560;0.000;0.000;2024-01-11T13:55:51;11.60;;;7.65;;
85190;SDS011;75560;0.000;0.000;2024-01-11T13:58:17;11.88;;;7.78;;
85190;SDS011;75560;0.000;0.000;2024-01-11T14:00:43;10.85;;;7.38;;
85190;SDS011;75560;0.000;0.000;2024-01-11T14:03:09;10.88;;;7.28;;
85190;SDS011;75560;0.000;0.000;2024-01-11T14:05:36;11.40;;;7.50;;
85190;SDS011;75560;0.000;0.000;2024-01-11T14:08:02;12.00;;;8.40;;
85190;SDS011;75560;0.000;0.000;2024-01-11T14:10:30;11.80;;;7.43;;
85190;SDS011;75560;0.000;0.000;2024-01-11T14:12:56;11.63;;;7.53;;
85190;SDS011;75560;0.000;0.000;2024-01-11T14:15:21;10.45;;;7.57;;
85190;SDS011;75560;0.000;0.000;2024-01-11T14:17:47;9.73;;;7.28;;
85190;SDS011;75560;0.000;0.000;2024-01-11T14:20:13;10.90;;;7.25;;
85190;SDS011;75560;0.000;0.000;2024-01-11T14:22:42;10.93;;;7.40;;
85190;SDS011;75560;0.000;0.000;2024-01-11T14:25:14;10.68;;;7.03;;
85190;SDS011;75560;0.000;0.000;2024-01-11T14:27:40;10.73;;;7.15;;
85190;SDS011;75560;0.000;0.000;2024-01-11T14:30:06;11.90;;;7.32;;
85190;SDS011;75560;0.000;0.000;2024-01-11T14:32:32;13.02;;;8.57;;
85190;SDS011;75560;0.000;0.000;2024-01-11T14:34:58;13.57;;;8.80;;
85190;SDS011;75560;0.000;0.000;2024-01-11T14:37:28;16.38;;;10.05;;
85190;SDS011;75560;0.000;0.000;2024-01-11T14:39:53;16.13;;;10.15;;
85190;SDS011;75560;0.000;0.000;2024-01-11T14:42:18;14.73;;;9.75;;
85190;SDS011;75560;0.000;0.000;2024-01-11T14:44:44;14.65;;;9.55;;
85190;SDS011;75560;0.000;0.000;2024-01-11T14:47:09;13.48;;;9.35;;
85190;SDS011;75560;0.000;0.000;2024-01-11T14:49:34;13.82;;;8.95;;